Terminal Aerodrome Forecast
Issued by NWS Paducah, KY

Home | Current Version | Previous Version | Text Only | Print | Product List | Glossary On
Versions: 1 2 3 4 5 6 7 8 9 10 11 12 13 14 15
000
FTUS43 KPAH 210520
TAFEVV
TAF
KEVV 210520Z 2106/2206 36007KT 5SM BR BKN009
      TEMPO 2106/2110 P6SM NSW SCT009 BKN020
     FM211500 34010KT P6SM BKN015
     FM212200 33008KT P6SM BKN020
     FM220200 VRB03KT P6SM SCT025=

USA.gov is the U.S. government's official web portal to all federal, state and local government web resources and services.